sensor_id;sensor_type;location;lat;lon;timestamp;P1;durP1;ratioP1;P2;durP2;ratioP2
57824;SDS011;43912;44.188;21.094;2023-02-27T00:01:34;12.30;;;4.38;;
57824;SDS011;43912;44.188;21.094;2023-02-27T00:04:01;16.70;;;7.68;;
57824;SDS011;43912;44.188;21.094;2023-02-27T00:06:27;13.70;;;7.28;;
57824;SDS011;43912;44.188;21.094;2023-02-27T00:08:53;7.72;;;3.42;;
57824;SDS011;43912;44.188;21.094;2023-02-27T00:11:19;15.02;;;7.45;;
57824;SDS011;43912;44.188;21.094;2023-02-27T00:13:45;8.10;;;3.85;;
57824;SDS011;43912;44.188;21.094;2023-02-27T00:16:11;8.07;;;3.75;;
57824;SDS011;43912;44.188;21.094;2023-02-27T00:18:38;8.48;;;3.60;;
57824;SDS011;43912;44.188;21.094;2023-02-27T00:21:04;7.93;;;3.63;;
57824;SDS011;43912;44.188;21.094;2023-02-27T00:23:30;8.80;;;4.30;;
57824;SDS011;43912;44.188;21.094;2023-02-27T00:25:56;9.30;;;3.72;;
57824;SDS011;43912;44.188;21.094;2023-02-27T00:28:25;9.18;;;3.53;;
57824;SDS011;43912;44.188;21.094;2023-02-27T00:30:51;11.85;;;5.88;;
57824;SDS011;43912;44.188;21.094;2023-02-27T00:33:17;8.48;;;3.95;;
57824;SDS011;43912;44.188;21.094;2023-02-27T00:35:43;9.18;;;4.00;;
57824;SDS011;43912;44.188;21.094;2023-02-27T00:41:13;10.65;;;5.50;;
57824;SDS011;43912;44.188;21.094;2023-02-27T00:43:39;12.77;;;5.97;;
57824;SDS011;43912;44.188;21.094;2023-02-27T00:46:05;12.75;;;6.07;;
57824;SDS011;43912;44.188;21.094;2023-02-27T00:48:31;8.70;;;4.65;;
57824;SDS011;43912;44.188;21.094;2023-02-27T00:50:57;7.47;;;3.03;;
57824;SDS011;43912;44.188;21.094;2023-02-27T00:53:23;7.55;;;3.47;;
57824;SDS011;43912;44.188;21.094;2023-02-27T00:55:49;6.35;;;2.90;;
57824;SDS011;43912;44.188;21.094;2023-02-27T00:58:15;7.32;;;3.55;;
57824;SDS011;43912;44.188;21.094;2023-02-27T01:00:41;9.43;;;5.20;;
57824;SDS011;43912;44.188;21.094;2023-02-27T01:03:08;10.98;;;6.93;;
57824;SDS011;43912;44.188;21.094;2023-02-27T01:05:34;9.10;;;4.28;;
57824;SDS011;43912;44.188;21.094;2023-02-27T01:08:00;8.40;;;4.03;;
57824;SDS011;43912;44.188;21.094;2023-02-27T01:10:26;8.32;;;4.63;;
57824;SDS011;43912;44.188;21.094;2023-02-27T01:12:52;9.20;;;5.53;;
57824;SDS011;43912;44.188;21.094;2023-02-27T01:15:18;9.02;;;5.38;;
57824;SDS011;43912;44.188;21.094;2023-02-27T01:17:44;9.57;;;5.93;;
57824;SDS011;43912;44.188;21.094;2023-02-27T01:20:12;9.25;;;5.28;;
57824;SDS011;43912;44.188;21.094;2023-02-27T01:22:38;8.25;;;4.63;;
57824;SDS011;43912;44.188;21.094;2023-02-27T01:25:04;8.55;;;4.95;;
57824;SDS011;43912;44.188;21.094;2023-02-27T01:27:30;10.70;;;6.22;;
57824;SDS011;43912;44.188;21.094;2023-02-27T01:29:56;8.80;;;5.43;;
57824;SDS011;43912;44.188;21.094;2023-02-27T01:32:22;10.18;;;6.35;;
57824;SDS011;43912;44.188;21.094;2023-02-27T01:34:48;9.82;;;5.95;;
57824;SDS011;43912;44.188;21.094;2023-02-27T01:37:14;9.20;;;5.72;;
57824;SDS011;43912;44.188;21.094;2023-02-27T01:39:40;10.88;;;7.25;;
57824;SDS011;43912;44.188;21.094;2023-02-27T01:42:16;10.50;;;7.72;;
57824;SDS011;43912;44.188;21.094;2023-02-27T01:47:27;10.95;;;7.10;;
57824;SDS011;43912;44.188;21.094;2023-02-27T01:49:53;12.82;;;8.60;;
57824;SDS011;43912;44.188;21.094;2023-02-27T01:52:19;16.63;;;11.00;;
57824;SDS011;43912;44.188;21.094;2023-02-27T01:54:46;13.18;;;9.10;;
57824;SDS011;43912;44.188;21.094;2023-02-27T01:57:12;12.98;;;8.52;;
57824;SDS011;43912;44.188;21.094;2023-02-27T01:59:39;13.55;;;9.15;;
57824;SDS011;43912;44.188;21.094;2023-02-27T02:02:12;13.02;;;9.15;;
57824;SDS011;43912;44.188;21.094;2023-02-27T02:04:39;12.55;;;8.75;;
57824;SDS011;43912;44.188;21.094;2023-02-27T02:07:06;16.48;;;10.75;;
57824;SDS011;43912;44.188;21.094;2023-02-27T02:09:33;15.50;;;10.57;;
57824;SDS011;43912;44.188;21.094;2023-02-27T02:12:00;15.20;;;10.50;;
57824;SDS011;43912;44.188;21.094;2023-02-27T02:14:26;15.68;;;10.90;;
57824;SDS011;43912;44.188;21.094;2023-02-27T02:34:49;20.92;;;14.35;;
57824;SDS011;43912;44.188;21.094;2023-02-27T02:42:49;24.55;;;17.30;;
57824;SDS011;43912;44.188;21.094;2023-02-27T02:50:31;25.25;;;17.60;;
57824;SDS011;43912;44.188;21.094;2023-02-27T02:53:02;26.15;;;17.33;;
57824;SDS011;43912;44.188;21.094;2023-02-27T02:58:07;21.80;;;16.25;;
57824;SDS011;43912;44.188;21.094;2023-02-27T03:00:35;25.27;;;17.80;;
57824;SDS011;43912;44.188;21.094;2023-02-27T03:03:10;23.10;;;17.27;;
57824;SDS011;43912;44.188;21.094;2023-02-27T03:05:40;22.17;;;16.85;;
57824;SDS011;43912;44.188;21.094;2023-02-27T03:08:08;23.70;;;17.38;;
57824;SDS011;43912;44.188;21.094;2023-02-27T03:10:43;26.83;;;19.45;;
57824;SDS011;43912;44.188;21.094;2023-02-27T03:13:16;28.15;;;21.63;;
57824;SDS011;43912;44.188;21.094;2023-02-27T03:16:05;26.92;;;20.42;;
57824;SDS011;43912;44.188;21.094;2023-02-27T03:18:36;25.13;;;17.98;;
57824;SDS011;43912;44.188;21.094;2023-02-27T03:21:04;25.23;;;19.13;;
57824;SDS011;43912;44.188;21.094;2023-02-27T03:23:32;24.35;;;18.38;;
57824;SDS011;43912;44.188;21.094;2023-02-27T03:26:00;24.08;;;18.08;;
57824;SDS011;43912;44.188;21.094;2023-02-27T03:28:28;23.70;;;17.75;;
57824;SDS011;43912;44.188;21.094;2023-02-27T03:30:56;22.63;;;16.60;;
57824;SDS011;43912;44.188;21.094;2023-02-27T03:33:29;23.80;;;16.83;;
57824;SDS011;43912;44.188;21.094;2023-02-27T03:38:43;21.90;;;16.63;;
57824;SDS011;43912;44.188;21.094;2023-02-27T03:41:14;20.58;;;15.77;;
57824;SDS011;43912;44.188;21.094;2023-02-27T03:46:29;20.02;;;14.32;;
57824;SDS011;43912;44.188;21.094;2023-02-27T03:48:56;18.85;;;13.75;;
57824;SDS011;43912;44.188;21.094;2023-02-27T03:51:23;19.65;;;14.93;;
57824;SDS011;43912;44.188;21.094;2023-02-27T03:54:08;17.25;;;13.07;;
57824;SDS011;43912;44.188;21.094;2023-02-27T03:56:56;17.33;;;12.63;;
57824;SDS011;43912;44.188;21.094;2023-02-27T03:59:23;16.40;;;12.63;;
57824;SDS011;43912;44.188;21.094;2023-02-27T04:01:50;14.20;;;10.93;;
57824;SDS011;43912;44.188;21.094;2023-02-27T04:04:17;14.35;;;10.10;;
57824;SDS011;43912;44.188;21.094;2023-02-27T04:22:58;13.50;;;10.35;;
57824;SDS011;43912;44.188;21.094;2023-02-27T04:25:48;14.45;;;10.88;;
57824;SDS011;43912;44.188;21.094;2023-02-27T04:28:16;14.48;;;11.25;;
57824;SDS011;43912;44.188;21.094;2023-02-27T04:33:45;15.35;;;11.57;;
57824;SDS011;43912;44.188;21.094;2023-02-27T04:41:19;15.82;;;12.02;;
57824;SDS011;43912;44.188;21.094;2023-02-27T04:43:46;13.13;;;10.23;;
57824;SDS011;43912;44.188;21.094;2023-02-27T04:46:13;15.15;;;10.90;;
57824;SDS011;43912;44.188;21.094;2023-02-27T04:49:23;12.88;;;10.40;;
57824;SDS011;43912;44.188;21.094;2023-02-27T04:51:34;13.98;;;10.45;;
57824;SDS011;43912;44.188;21.094;2023-02-27T04:54:03;13.93;;;10.20;;
57824;SDS011;43912;44.188;21.094;2023-02-27T04:56:35;15.18;;;11.07;;
57824;SDS011;43912;44.188;21.094;2023-02-27T04:59:04;14.63;;;11.07;;
57824;SDS011;43912;44.188;21.094;2023-02-27T05:01:43;15.63;;;11.10;;
57824;SDS011;43912;44.188;21.094;2023-02-27T05:04:11;14.27;;;10.98;;
57824;SDS011;43912;44.188;21.094;2023-02-27T05:12:21;14.07;;;10.73;;
57824;SDS011;43912;44.188;21.094;2023-02-27T05:14:50;14.95;;;11.27;;
57824;SDS011;43912;44.188;21.094;2023-02-27T05:17:24;14.57;;;10.60;;
57824;SDS011;43912;44.188;21.094;2023-02-27T05:19:51;13.63;;;10.25;;
57824;SDS011;43912;44.188;21.094;2023-02-27T05:22:35;15.02;;;11.50;;
57824;SDS011;43912;44.188;21.094;2023-02-27T05:27:34;16.23;;;11.73;;
57824;SDS011;43912;44.188;21.094;2023-02-27T05:30:05;13.98;;;10.73;;
57824;SDS011;43912;44.188;21.094;2023-02-27T05:32:44;14.93;;;11.32;;
57824;SDS011;43912;44.188;21.094;2023-02-27T05:37:54;15.10;;;11.02;;
57824;SDS011;43912;44.188;21.094;2023-02-27T05:40:24;17.42;;;11.85;;
57824;SDS011;43912;44.188;21.094;2023-02-27T05:43:01;16.90;;;12.82;;
57824;SDS011;43912;44.188;21.094;2023-02-27T05:45:29;16.42;;;12.88;;
57824;SDS011;43912;44.188;21.094;2023-02-27T05:48:16;17.05;;;13.02;;
57824;SDS011;43912;44.188;21.094;2023-02-27T05:50:44;18.02;;;13.70;;
57824;SDS011;43912;44.188;21.094;2023-02-27T05:53:12;16.83;;;12.68;;
57824;SDS011;43912;44.188;21.094;2023-02-27T05:55:44;19.08;;;14.30;;
57824;SDS011;43912;44.188;21.094;2023-02-27T06:00:57;21.33;;;15.63;;
57824;SDS011;43912;44.188;21.094;2023-02-27T06:03:24;21.20;;;15.77;;
57824;SDS011;43912;44.188;21.094;2023-02-27T06:05:50;22.58;;;17.35;;
57824;SDS011;43912;44.188;21.094;2023-02-27T06:11:14;19.08;;;14.77;;
57824;SDS011;43912;44.188;21.094;2023-02-27T06:13:41;21.90;;;14.90;;
57824;SDS011;43912;44.188;21.094;2023-02-27T06:16:11;20.33;;;15.35;;
57824;SDS011;43912;44.188;21.094;2023-02-27T06:18:38;21.10;;;16.65;;
57824;SDS011;43912;44.188;21.094;2023-02-27T06:21:04;35.97;;;25.27;;
57824;SDS011;43912;44.188;21.094;2023-02-27T06:23:30;34.22;;;21.73;;
57824;SDS011;43912;44.188;21.094;2023-02-27T06:25:56;27.15;;;19.63;;
57824;SDS011;43912;44.188;21.094;2023-02-27T06:28:22;30.67;;;23.25;;
57824;SDS011;43912;44.188;21.094;2023-02-27T06:30:52;37.85;;;27.38;;
57824;SDS011;43912;44.188;21.094;2023-02-27T06:33:19;26.17;;;18.20;;
57824;SDS011;43912;44.188;21.094;2023-02-27T06:35:48;30.98;;;22.70;;
57824;SDS011;43912;44.188;21.094;2023-02-27T06:38:14;28.40;;;21.48;;
57824;SDS011;43912;44.188;21.094;2023-02-27T06:40:40;23.70;;;18.00;;
57824;SDS011;43912;44.188;21.094;2023-02-27T06:43:06;17.83;;;14.93;;
57824;SDS011;43912;44.188;21.094;2023-02-27T06:45:33;17.20;;;13.75;;
57824;SDS011;43912;44.188;21.094;2023-02-27T06:47:59;16.58;;;13.20;;
57824;SDS011;43912;44.188;21.094;2023-02-27T06:50:25;17.60;;;14.18;;
57824;SDS011;43912;44.188;21.094;2023-02-27T06:52:51;16.38;;;12.90;;
57824;SDS011;43912;44.188;21.094;2023-02-27T06:55:17;15.30;;;12.13;;
57824;SDS011;43912;44.188;21.094;2023-02-27T06:57:45;17.05;;;13.82;;
57824;SDS011;43912;44.188;21.094;2023-02-27T07:00:12;15.75;;;12.10;;
57824;SDS011;43912;44.188;21.094;2023-02-27T07:02:38;18.15;;;14.32;;
57824;SDS011;43912;44.188;21.094;2023-02-27T07:05:04;15.32;;;12.10;;
57824;SDS011;43912;44.188;21.094;2023-02-27T07:07:31;20.10;;;17.33;;
57824;SDS011;43912;44.188;21.094;2023-02-27T07:09:57;17.90;;;14.40;;
57824;SDS011;43912;44.188;21.094;2023-02-27T07:12:23;18.65;;;13.45;;
57824;SDS011;43912;44.188;21.094;2023-02-27T07:14:49;17.52;;;14.43;;
57824;SDS011;43912;44.188;21.094;2023-02-27T07:17:15;18.30;;;14.43;;
57824;SDS011;43912;44.188;21.094;2023-02-27T07:19:41;17.13;;;13.70;;
57824;SDS011;43912;44.188;21.094;2023-02-27T07:22:07;17.77;;;14.25;;
57824;SDS011;43912;44.188;21.094;2023-02-27T07:24:34;18.35;;;16.27;;
57824;SDS011;43912;44.188;21.094;2023-02-27T07:27:00;19.55;;;17.55;;
57824;SDS011;43912;44.188;21.094;2023-02-27T07:29:26;15.70;;;12.65;;
57824;SDS011;43912;44.188;21.094;2023-02-27T07:31:52;18.00;;;13.52;;
57824;SDS011;43912;44.188;21.094;2023-02-27T07:34:18;18.30;;;13.45;;
57824;SDS011;43912;44.188;21.094;2023-02-27T07:36:45;17.83;;;14.27;;
57824;SDS011;43912;44.188;21.094;2023-02-27T07:39:11;19.35;;;15.90;;
57824;SDS011;43912;44.188;21.094;2023-02-27T07:41:37;22.40;;;17.73;;
57824;SDS011;43912;44.188;21.094;2023-02-27T07:44:04;20.83;;;17.00;;
57824;SDS011;43912;44.188;21.094;2023-02-27T07:46:33;21.25;;;18.55;;
57824;SDS011;43912;44.188;21.094;2023-02-27T07:48:59;19.67;;;16.23;;
57824;SDS011;43912;44.188;21.094;2023-02-27T07:51:25;20.52;;;16.40;;
57824;SDS011;43912;44.188;21.094;2023-02-27T07:53:51;19.08;;;14.85;;
57824;SDS011;43912;44.188;21.094;2023-02-27T07:56:18;19.30;;;15.40;;
57824;SDS011;43912;44.188;21.094;2023-02-27T07:58:44;19.63;;;15.82;;
57824;SDS011;43912;44.188;21.094;2023-02-27T08:01:10;19.92;;;15.85;;
57824;SDS011;43912;44.188;21.094;2023-02-27T08:03:36;22.95;;;16.17;;
57824;SDS011;43912;44.188;21.094;2023-02-27T08:06:02;22.95;;;19.00;;
57824;SDS011;43912;44.188;21.094;2023-02-27T08:08:43;21.98;;;17.42;;
57824;SDS011;43912;44.188;21.094;2023-02-27T08:11:09;22.02;;;17.73;;
57824;SDS011;43912;44.188;21.094;2023-02-27T08:13:35;23.55;;;18.17;;
57824;SDS011;43912;44.188;21.094;2023-02-27T08:16:01;23.83;;;18.20;;
57824;SDS011;43912;44.188;21.094;2023-02-27T08:18:27;22.92;;;17.98;;
57824;SDS011;43912;44.188;21.094;2023-02-27T08:20:54;23.48;;;17.80;;
57824;SDS011;43912;44.188;21.094;2023-02-27T08:23:21;23.23;;;18.52;;
57824;SDS011;43912;44.188;21.094;2023-02-27T08:25:47;34.10;;;26.42;;
57824;SDS011;43912;44.188;21.094;2023-02-27T08:28:13;24.73;;;19.08;;
57824;SDS011;43912;44.188;21.094;2023-02-27T08:30:40;27.27;;;21.70;;
57824;SDS011;43912;44.188;21.094;2023-02-27T08:33:06;22.27;;;18.52;;
57824;SDS011;43912;44.188;21.094;2023-02-27T08:35:32;26.67;;;19.85;;
57824;SDS011;43912;44.188;21.094;2023-02-27T08:37:58;28.88;;;21.73;;
57824;SDS011;43912;44.188;21.094;2023-02-27T08:40:24;31.98;;;22.52;;
57824;SDS011;43912;44.188;21.094;2023-02-27T08:42:50;30.75;;;22.42;;
57824;SDS011;43912;44.188;21.094;2023-02-27T08:45:16;28.95;;;22.42;;
57824;SDS011;43912;44.188;21.094;2023-02-27T08:47:45;30.40;;;23.58;;
57824;SDS011;43912;44.188;21.094;2023-02-27T08:50:11;33.38;;;24.60;;
57824;SDS011;43912;44.188;21.094;2023-02-27T08:52:37;32.80;;;24.65;;
57824;SDS011;43912;44.188;21.094;2023-02-27T08:55:04;27.05;;;21.42;;
57824;SDS011;43912;44.188;21.094;2023-02-27T08:57:30;30.02;;;22.33;;
57824;SDS011;43912;44.188;21.094;2023-02-27T08:59:56;32.30;;;24.80;;
57824;SDS011;43912;44.188;21.094;2023-02-27T09:02:22;26.00;;;20.90;;
57824;SDS011;43912;44.188;21.094;2023-02-27T09:04:50;20.98;;;17.10;;
57824;SDS011;43912;44.188;21.094;2023-02-27T09:07:16;23.23;;;17.73;;
57824;SDS011;43912;44.188;21.094;2023-02-27T09:09:42;23.77;;;18.33;;
57824;SDS011;43912;44.188;21.094;2023-02-27T09:12:09;27.67;;;19.38;;
57824;SDS011;43912;44.188;21.094;2023-02-27T09:14:35;25.65;;;17.73;;
57824;SDS011;43912;44.188;21.094;2023-02-27T09:17:01;23.73;;;17.88;;
57824;SDS011;43912;44.188;21.094;2023-02-27T09:19:27;22.45;;;17.30;;
57824;SDS011;43912;44.188;21.094;2023-02-27T09:21:53;23.15;;;17.98;;
57824;SDS011;43912;44.188;21.094;2023-02-27T09:24:19;25.38;;;19.88;;
57824;SDS011;43912;44.188;21.094;2023-02-27T09:26:45;30.60;;;21.83;;
57824;SDS011;43912;44.188;21.094;2023-02-27T09:29:11;29.23;;;23.23;;
57824;SDS011;43912;44.188;21.094;2023-02-27T09:31:37;25.48;;;20.70;;
57824;SDS011;43912;44.188;21.094;2023-02-27T09:34:03;31.52;;;23.38;;
57824;SDS011;43912;44.188;21.094;2023-02-27T09:36:29;29.67;;;23.35;;
57824;SDS011;43912;44.188;21.094;2023-02-27T09:38:57;30.15;;;24.30;;
57824;SDS011;43912;44.188;21.094;2023-02-27T09:44:42;25.38;;;19.23;;
57824;SDS011;43912;44.188;21.094;2023-02-27T09:47:02;26.63;;;21.08;;
57824;SDS011;43912;44.188;21.094;2023-02-27T09:49:30;31.58;;;25.75;;
57824;SDS011;43912;44.188;21.094;2023-02-27T09:51:57;25.95;;;20.33;;
57824;SDS011;43912;44.188;21.094;2023-02-27T09:54:23;25.90;;;20.10;;
57824;SDS011;43912;44.188;21.094;2023-02-27T09:56:55;33.28;;;26.00;;
57824;SDS011;43912;44.188;21.094;2023-02-27T10:07:11;31.58;;;24.10;;
57824;SDS011;43912;44.188;21.094;2023-02-27T10:12:33;22.30;;;17.85;;
57824;SDS011;43912;44.188;21.094;2023-02-27T10:15:24;21.63;;;18.00;;
57824;SDS011;43912;44.188;21.094;2023-02-27T10:17:52;23.52;;;18.25;;
57824;SDS011;43912;44.188;21.094;2023-02-27T10:20:21;21.77;;;18.15;;
57824;SDS011;43912;44.188;21.094;2023-02-27T10:22:49;28.17;;;22.13;;
57824;SDS011;43912;44.188;21.094;2023-02-27T10:25:16;26.33;;;19.63;;
57824;SDS011;43912;44.188;21.094;2023-02-27T10:27:44;21.80;;;17.13;;
57824;SDS011;43912;44.188;21.094;2023-02-27T10:32:37;22.58;;;17.88;;
57824;SDS011;43912;44.188;21.094;2023-02-27T10:37:36;28.75;;;22.40;;
57824;SDS011;43912;44.188;21.094;2023-02-27T10:40:03;40.72;;;35.47;;
57824;SDS011;43912;44.188;21.094;2023-02-27T10:42:31;30.08;;;24.40;;
57824;SDS011;43912;44.188;21.094;2023-02-27T10:45:00;28.88;;;22.88;;
57824;SDS011;43912;44.188;21.094;2023-02-27T10:47:27;34.40;;;25.33;;
57824;SDS011;43912;44.188;21.094;2023-02-27T10:49:55;31.85;;;24.17;;
57824;SDS011;43912;44.188;21.094;2023-02-27T10:52:24;32.38;;;23.23;;
57824;SDS011;43912;44.188;21.094;2023-02-27T10:54:50;27.13;;;19.75;;
57824;SDS011;43912;44.188;21.094;2023-02-27T10:57:18;27.77;;;20.80;;
57824;SDS011;43912;44.188;21.094;2023-02-27T10:59:52;25.65;;;18.75;;
57824;SDS011;43912;44.188;21.094;2023-02-27T11:04:52;27.85;;;19.85;;
57824;SDS011;43912;44.188;21.094;2023-02-27T11:07:26;24.58;;;17.45;;
57824;SDS011;43912;44.188;21.094;2023-02-27T11:12:23;31.30;;;23.05;;
57824;SDS011;43912;44.188;21.094;2023-02-27T11:14:52;30.85;;;22.85;;
57824;SDS011;43912;44.188;21.094;2023-02-27T11:17:20;26.45;;;21.63;;
57824;SDS011;43912;44.188;21.094;2023-02-27T11:19:46;26.27;;;21.17;;
57824;SDS011;43912;44.188;21.094;2023-02-27T11:28:25;36.53;;;32.70;;
57824;SDS011;43912;44.188;21.094;2023-02-27T11:30:56;31.92;;;23.85;;
57824;SDS011;43912;44.188;21.094;2023-02-27T11:33:23;33.67;;;26.38;;
57824;SDS011;43912;44.188;21.094;2023-02-27T11:35:50;29.35;;;23.80;;
57824;SDS011;43912;44.188;21.094;2023-02-27T11:41:28;32.55;;;25.25;;
57824;SDS011;43912;44.188;21.094;2023-02-27T11:43:55;34.67;;;28.42;;
57824;SDS011;43912;44.188;21.094;2023-02-27T11:46:23;36.58;;;29.83;;
57824;SDS011;43912;44.188;21.094;2023-02-27T11:59:27;43.05;;;34.17;;
57824;SDS011;43912;44.188;21.094;2023-02-27T12:11:59;38.22;;;29.85;;
57824;SDS011;43912;44.188;21.094;2023-02-27T12:14:28;34.00;;;27.40;;
57824;SDS011;43912;44.188;21.094;2023-02-27T12:17:00;33.55;;;27.23;;
57824;SDS011;43912;44.188;21.094;2023-02-27T12:19:34;38.53;;;30.88;;
57824;SDS011;43912;44.188;21.094;2023-02-27T12:22:04;36.78;;;29.00;;
57824;SDS011;43912;44.188;21.094;2023-02-27T12:24:41;45.30;;;32.58;;
57824;SDS011;43912;44.188;21.094;2023-02-27T12:29:35;51.03;;;35.25;;
57824;SDS011;43912;44.188;21.094;2023-02-27T12:34:48;41.50;;;32.95;;
57824;SDS011;43912;44.188;21.094;2023-02-27T12:37:23;34.95;;;28.13;;
57824;SDS011;43912;44.188;21.094;2023-02-27T12:39:50;69.55;;;49.08;;
57824;SDS011;43912;44.188;21.094;2023-02-27T12:50:11;40.63;;;33.03;;
57824;SDS011;43912;44.188;21.094;2023-02-27T13:00:15;43.53;;;35.25;;
57824;SDS011;43912;44.188;21.094;2023-02-27T13:10:46;38.22;;;29.48;;
57824;SDS011;43912;44.188;21.094;2023-02-27T13:15:59;44.58;;;33.90;;
57824;SDS011;43912;44.188;21.094;2023-02-27T13:18:29;43.78;;;31.98;;
57824;SDS011;43912;44.188;21.094;2023-02-27T13:20:58;45.47;;;34.72;;
57824;SDS011;43912;44.188;21.094;2023-02-27T13:23:31;43.75;;;34.30;;
57824;SDS011;43912;44.188;21.094;2023-02-27T13:25:58;47.95;;;34.33;;
57824;SDS011;43912;44.188;21.094;2023-02-27T13:28:26;54.83;;;45.75;;
57824;SDS011;43912;44.188;21.094;2023-02-27T13:31:03;41.00;;;33.00;;
57824;SDS011;43912;44.188;21.094;2023-02-27T13:38:32;36.08;;;29.10;;
57824;SDS011;43912;44.188;21.094;2023-02-27T13:43:43;37.00;;;31.40;;
57824;SDS011;43912;44.188;21.094;2023-02-27T13:48:54;39.53;;;31.25;;
57824;SDS011;43912;44.188;21.094;2023-02-27T13:56:47;35.45;;;28.50;;
57824;SDS011;43912;44.188;21.094;2023-02-27T13:59:21;32.83;;;27.23;;
57824;SDS011;43912;44.188;21.094;2023-02-27T14:01:49;32.90;;;27.30;;
57824;SDS011;43912;44.188;21.094;2023-02-27T14:04:16;32.90;;;27.92;;
57824;SDS011;43912;44.188;21.094;2023-02-27T14:06:43;32.33;;;24.15;;
57824;SDS011;43912;44.188;21.094;2023-02-27T14:09:11;31.70;;;25.08;;
57824;SDS011;43912;44.188;21.094;2023-02-27T14:11:38;33.75;;;26.38;;
57824;SDS011;43912;44.188;21.094;2023-02-27T14:16:54;32.00;;;24.80;;
57824;SDS011;43912;44.188;21.094;2023-02-27T14:24:16;49.67;;;32.60;;
57824;SDS011;43912;44.188;21.094;2023-02-27T14:26:43;46.17;;;30.05;;
57824;SDS011;43912;44.188;21.094;2023-02-27T14:29:17;39.83;;;28.55;;
57824;SDS011;43912;44.188;21.094;2023-02-27T14:31:44;33.92;;;25.55;;
57824;SDS011;43912;44.188;21.094;2023-02-27T14:34:12;39.95;;;26.23;;
57824;SDS011;43912;44.188;21.094;2023-02-27T14:36:41;44.50;;;32.08;;
57824;SDS011;43912;44.188;21.094;2023-02-27T14:44:37;171.15;;;116.70;;
57824;SDS011;43912;44.188;21.094;2023-02-27T14:47:03;38.13;;;32.22;;
57824;SDS011;43912;44.188;21.094;2023-02-27T14:49:30;39.42;;;32.08;;
57824;SDS011;43912;44.188;21.094;2023-02-27T14:52:19;39.97;;;33.95;;
57824;SDS011;43912;44.188;21.094;2023-02-27T14:54:44;39.28;;;32.20;;
57824;SDS011;43912;44.188;21.094;2023-02-27T14:57:17;43.83;;;32.80;;
57824;SDS011;43912;44.188;21.094;2023-02-27T14:59:44;51.70;;;39.17;;
57824;SDS011;43912;44.188;21.094;2023-02-27T15:02:19;32.78;;;25.80;;
57824;SDS011;43912;44.188;21.094;2023-02-27T15:04:46;32.70;;;27.00;;
57824;SDS011;43912;44.188;21.094;2023-02-27T15:07:19;35.75;;;29.17;;
57824;SDS011;43912;44.188;21.094;2023-02-27T15:09:52;38.95;;;30.98;;
57824;SDS011;43912;44.188;21.094;2023-02-27T15:12:19;31.58;;;26.45;;
57824;SDS011;43912;44.188;21.094;2023-02-27T15:14:48;36.58;;;29.58;;
57824;SDS011;43912;44.188;21.094;2023-02-27T15:17:16;36.17;;;28.83;;
57824;SDS011;43912;44.188;21.094;2023-02-27T15:19:46;30.90;;;25.40;;
57824;SDS011;43912;44.188;21.094;2023-02-27T15:22:15;35.38;;;26.20;;
57824;SDS011;43912;44.188;21.094;2023-02-27T15:24:43;37.83;;;29.98;;
57824;SDS011;43912;44.188;21.094;2023-02-27T15:27:11;35.85;;;28.77;;
57824;SDS011;43912;44.188;21.094;2023-02-27T15:29:39;40.95;;;32.85;;
57824;SDS011;43912;44.188;21.094;2023-02-27T15:32:06;33.53;;;26.52;;
57824;SDS011;43912;44.188;21.094;2023-02-27T15:34:40;30.17;;;23.90;;
57824;SDS011;43912;44.188;21.094;2023-02-27T15:37:07;29.67;;;23.77;;
57824;SDS011;43912;44.188;21.094;2023-02-27T15:39:33;32.28;;;26.30;;
57824;SDS011;43912;44.188;21.094;2023-02-27T15:42:01;39.83;;;31.60;;
57824;SDS011;43912;44.188;21.094;2023-02-27T15:46:59;34.75;;;26.77;;
57824;SDS011;43912;44.188;21.094;2023-02-27T15:49:25;38.78;;;31.00;;
57824;SDS011;43912;44.188;21.094;2023-02-27T15:52:03;43.50;;;35.72;;
57824;SDS011;43912;44.188;21.094;2023-02-27T15:54:31;40.90;;;31.77;;
57824;SDS011;43912;44.188;21.094;2023-02-27T15:56:57;68.00;;;57.67;;
57824;SDS011;43912;44.188;21.094;2023-02-27T15:59:23;34.75;;;28.80;;
57824;SDS011;43912;44.188;21.094;2023-02-27T16:01:49;33.88;;;28.02;;
57824;SDS011;43912;44.188;21.094;2023-02-27T16:04:18;33.65;;;27.55;;
57824;SDS011;43912;44.188;21.094;2023-02-27T16:06:48;38.13;;;31.52;;
57824;SDS011;43912;44.188;21.094;2023-02-27T16:09:18;41.20;;;31.42;;
57824;SDS011;43912;44.188;21.094;2023-02-27T16:11:45;36.67;;;28.80;;
57824;SDS011;43912;44.188;21.094;2023-02-27T16:16:55;56.17;;;38.20;;
57824;SDS011;43912;44.188;21.094;2023-02-27T16:19:26;56.65;;;40.13;;
57824;SDS011;43912;44.188;21.094;2023-02-27T16:22:05;48.20;;;35.15;;
57824;SDS011;43912;44.188;21.094;2023-02-27T16:24:37;53.65;;;39.70;;
57824;SDS011;43912;44.188;21.094;2023-02-27T16:27:03;40.13;;;31.88;;
57824;SDS011;43912;44.188;21.094;2023-02-27T16:29:33;39.35;;;30.58;;
57824;SDS011;43912;44.188;21.094;2023-02-27T16:32:00;46.30;;;37.20;;
57824;SDS011;43912;44.188;21.094;2023-02-27T16:34:33;58.13;;;45.47;;
57824;SDS011;43912;44.188;21.094;2023-02-27T16:37:03;45.60;;;33.97;;
57824;SDS011;43912;44.188;21.094;2023-02-27T16:39:31;37.45;;;30.25;;
57824;SDS011;43912;44.188;21.094;2023-02-27T16:41:58;44.45;;;34.35;;
57824;SDS011;43912;44.188;21.094;2023-02-27T16:44:24;37.13;;;31.55;;
57824;SDS011;43912;44.188;21.094;2023-02-27T16:46:51;33.35;;;26.35;;
57824;SDS011;43912;44.188;21.094;2023-02-27T16:49:22;31.10;;;26.85;;
57824;SDS011;43912;44.188;21.094;2023-02-27T16:51:48;39.53;;;30.40;;
57824;SDS011;43912;44.188;21.094;2023-02-27T16:57:05;43.17;;;32.85;;
57824;SDS011;43912;44.188;21.094;2023-02-27T16:59:33;37.42;;;30.30;;
57824;SDS011;43912;44.188;21.094;2023-02-27T17:02:01;39.50;;;30.73;;
57824;SDS011;43912;44.188;21.094;2023-02-27T17:04:27;40.03;;;31.05;;
57824;SDS011;43912;44.188;21.094;2023-02-27T17:06:54;32.45;;;25.25;;
57824;SDS011;43912;44.188;21.094;2023-02-27T17:09:20;74.25;;;50.88;;
57824;SDS011;43912;44.188;21.094;2023-02-27T17:11:46;198.93;;;121.60;;
57824;SDS011;43912;44.188;21.094;2023-02-27T17:14:13;76.00;;;53.33;;
57824;SDS011;43912;44.188;21.094;2023-02-27T17:16:39;30.88;;;25.77;;
57824;SDS011;43912;44.188;21.094;2023-02-27T17:19:05;33.28;;;25.13;;
57824;SDS011;43912;44.188;21.094;2023-02-27T17:21:32;36.35;;;31.90;;
57824;SDS011;43912;44.188;21.094;2023-02-27T17:23:59;37.33;;;29.35;;
57824;SDS011;43912;44.188;21.094;2023-02-27T17:26:25;44.22;;;36.08;;
57824;SDS011;43912;44.188;21.094;2023-02-27T17:28:52;36.80;;;29.70;;
57824;SDS011;43912;44.188;21.094;2023-02-27T17:31:19;27.13;;;22.70;;
57824;SDS011;43912;44.188;21.094;2023-02-27T17:33:50;34.15;;;23.48;;
57824;SDS011;43912;44.188;21.094;2023-02-27T17:36:17;27.35;;;21.70;;
57824;SDS011;43912;44.188;21.094;2023-02-27T17:38:44;27.13;;;21.25;;
57824;SDS011;43912;44.188;21.094;2023-02-27T17:41:10;26.92;;;21.80;;
57824;SDS011;43912;44.188;21.094;2023-02-27T17:43:37;28.13;;;22.98;;